sensor_id;sensor_type;location;lat;lon;timestamp;P1;durP1;ratioP1;P2;durP2;ratioP2
32639;SDS011;19049;52.524;11.468;2023-11-21T00:00:16;16.40;;;6.40;;
32639;SDS011;19049;52.524;11.468;2023-11-21T00:02:42;18.00;;;8.60;;
32639;SDS011;19049;52.524;11.468;2023-11-21T00:05:09;14.37;;;7.10;;
32639;SDS011;19049;52.524;11.468;2023-11-21T00:07:36;17.07;;;8.03;;
32639;SDS011;19049;52.524;11.468;2023-11-21T00:10:02;18.77;;;8.80;;
32639;SDS011;19049;52.524;11.468;2023-11-21T00:12:33;18.47;;;7.90;;
32639;SDS011;19049;52.524;11.468;2023-11-21T00:14:59;18.07;;;7.90;;
32639;SDS011;19049;52.524;11.468;2023-11-21T00:17:25;20.67;;;8.67;;
32639;SDS011;19049;52.524;11.468;2023-11-21T00:19:51;19.07;;;8.83;;
32639;SDS011;19049;52.524;11.468;2023-11-21T00:22:17;14.97;;;7.33;;
32639;SDS011;19049;52.524;11.468;2023-11-21T00:24:43;17.57;;;8.03;;
32639;SDS011;19049;52.524;11.468;2023-11-21T00:27:09;18.03;;;7.83;;
32639;SDS011;19049;52.524;11.468;2023-11-21T00:29:34;13.23;;;7.43;;
32639;SDS011;19049;52.524;11.468;2023-11-21T00:32:00;24.23;;;9.20;;
32639;SDS011;19049;52.524;11.468;2023-11-21T00:34:26;15.77;;;7.57;;
32639;SDS011;19049;52.524;11.468;2023-11-21T00:36:52;17.33;;;8.97;;
32639;SDS011;19049;52.524;11.468;2023-11-21T00:39:17;13.10;;;7.67;;
32639;SDS011;19049;52.524;11.468;2023-11-21T00:41:43;17.50;;;8.10;;
32639;SDS011;19049;52.524;11.468;2023-11-21T00:44:10;15.23;;;7.77;;
32639;SDS011;19049;52.524;11.468;2023-11-21T00:46:36;17.40;;;8.07;;
32639;SDS011;19049;52.524;11.468;2023-11-21T00:49:02;16.73;;;7.37;;
32639;SDS011;19049;52.524;11.468;2023-11-21T00:51:29;16.57;;;7.90;;
32639;SDS011;19049;52.524;11.468;2023-11-21T00:53:55;15.17;;;7.33;;
32639;SDS011;19049;52.524;11.468;2023-11-21T00:56:20;19.50;;;8.93;;
32639;SDS011;19049;52.524;11.468;2023-11-21T00:58:46;13.87;;;7.87;;
32639;SDS011;19049;52.524;11.468;2023-11-21T01:01:15;14.47;;;6.97;;
32639;SDS011;19049;52.524;11.468;2023-11-21T01:03:41;16.93;;;7.67;;
32639;SDS011;19049;52.524;11.468;2023-11-21T01:06:07;15.20;;;7.30;;
32639;SDS011;19049;52.524;11.468;2023-11-21T01:08:33;16.73;;;8.17;;
32639;SDS011;19049;52.524;11.468;2023-11-21T01:11:00;15.97;;;8.10;;
32639;SDS011;19049;52.524;11.468;2023-11-21T01:13:27;12.67;;;7.07;;
32639;SDS011;19049;52.524;11.468;2023-11-21T01:15:53;15.93;;;8.57;;
32639;SDS011;19049;52.524;11.468;2023-11-21T01:18:19;18.83;;;9.70;;
32639;SDS011;19049;52.524;11.468;2023-11-21T01:20:45;19.60;;;8.50;;
32639;SDS011;19049;52.524;11.468;2023-11-21T01:23:12;13.93;;;8.07;;
32639;SDS011;19049;52.524;11.468;2023-11-21T01:25:38;18.77;;;7.73;;
32639;SDS011;19049;52.524;11.468;2023-11-21T01:28:03;16.30;;;6.17;;
32639;SDS011;19049;52.524;11.468;2023-11-21T01:30:29;16.30;;;7.60;;
32639;SDS011;19049;52.524;11.468;2023-11-21T01:32:56;17.97;;;8.60;;
32639;SDS011;19049;52.524;11.468;2023-11-21T01:35:22;13.87;;;7.27;;
32639;SDS011;19049;52.524;11.468;2023-11-21T01:37:47;13.27;;;6.60;;
32639;SDS011;19049;52.524;11.468;2023-11-21T01:40:13;10.43;;;6.17;;
32639;SDS011;19049;52.524;11.468;2023-11-21T01:42:39;17.77;;;7.50;;
32639;SDS011;19049;52.524;11.468;2023-11-21T01:45:05;13.60;;;6.70;;
32639;SDS011;19049;52.524;11.468;2023-11-21T01:47:33;9.20;;;5.93;;
32639;SDS011;19049;52.524;11.468;2023-11-21T01:50:00;11.73;;;5.80;;
32639;SDS011;19049;52.524;11.468;2023-11-21T01:52:27;8.63;;;5.57;;
32639;SDS011;19049;52.524;11.468;2023-11-21T01:54:53;11.23;;;6.03;;
32639;SDS011;19049;52.524;11.468;2023-11-21T01:57:19;12.20;;;6.40;;
32639;SDS011;19049;52.524;11.468;2023-11-21T01:59:45;13.50;;;6.93;;
32639;SDS011;19049;52.524;11.468;2023-11-21T02:02:13;7.63;;;5.70;;
32639;SDS011;19049;52.524;11.468;2023-11-21T02:04:38;9.70;;;5.80;;
32639;SDS011;19049;52.524;11.468;2023-11-21T02:07:04;13.43;;;6.40;;
32639;SDS011;19049;52.524;11.468;2023-11-21T02:09:32;9.00;;;5.23;;
32639;SDS011;19049;52.524;11.468;2023-11-21T02:11:59;12.30;;;6.03;;
32639;SDS011;19049;52.524;11.468;2023-11-21T02:14:26;13.57;;;6.17;;
32639;SDS011;19049;52.524;11.468;2023-11-21T02:16:53;9.47;;;5.57;;
32639;SDS011;19049;52.524;11.468;2023-11-21T02:19:21;5.67;;;3.70;;
32639;SDS011;19049;52.524;11.468;2023-11-21T02:21:54;5.20;;;3.90;;
32639;SDS011;19049;52.524;11.468;2023-11-21T02:24:28;5.27;;;3.63;;
32639;SDS011;19049;52.524;11.468;2023-11-21T02:26:53;5.47;;;3.87;;
32639;SDS011;19049;52.524;11.468;2023-11-21T02:29:20;8.27;;;4.77;;
32639;SDS011;19049;52.524;11.468;2023-11-21T02:31:53;6.17;;;4.40;;
32639;SDS011;19049;52.524;11.468;2023-11-21T02:34:20;8.20;;;4.80;;
32639;SDS011;19049;52.524;11.468;2023-11-21T02:36:46;4.57;;;3.30;;
32639;SDS011;19049;52.524;11.468;2023-11-21T02:39:14;7.33;;;4.60;;
32639;SDS011;19049;52.524;11.468;2023-11-21T02:41:41;6.70;;;4.47;;
32639;SDS011;19049;52.524;11.468;2023-11-21T02:44:07;6.03;;;4.30;;
32639;SDS011;19049;52.524;11.468;2023-11-21T02:46:33;6.60;;;4.40;;
32639;SDS011;19049;52.524;11.468;2023-11-21T02:49:03;6.27;;;4.07;;
32639;SDS011;19049;52.524;11.468;2023-11-21T02:51:31;7.57;;;5.30;;
32639;SDS011;19049;52.524;11.468;2023-11-21T02:53:57;8.43;;;5.00;;
32639;SDS011;19049;52.524;11.468;2023-11-21T02:56:26;6.33;;;4.77;;
32639;SDS011;19049;52.524;11.468;2023-11-21T02:58:55;7.23;;;4.10;;
32639;SDS011;19049;52.524;11.468;2023-11-21T03:01:21;5.20;;;3.87;;
32639;SDS011;19049;52.524;11.468;2023-11-21T03:03:48;6.53;;;4.30;;
32639;SDS011;19049;52.524;11.468;2023-11-21T03:06:16;6.77;;;4.17;;
32639;SDS011;19049;52.524;11.468;2023-11-21T03:08:44;6.40;;;4.20;;
32639;SDS011;19049;52.524;11.468;2023-11-21T03:11:10;5.43;;;3.70;;
32639;SDS011;19049;52.524;11.468;2023-11-21T03:13:37;4.50;;;3.40;;
32639;SDS011;19049;52.524;11.468;2023-11-21T03:16:04;5.57;;;3.90;;
32639;SDS011;19049;52.524;11.468;2023-11-21T03:18:31;5.13;;;3.90;;
32639;SDS011;19049;52.524;11.468;2023-11-21T03:20:56;5.43;;;3.53;;
32639;SDS011;19049;52.524;11.468;2023-11-21T03:23:22;4.73;;;3.60;;
32639;SDS011;19049;52.524;11.468;2023-11-21T03:25:48;4.93;;;3.73;;
32639;SDS011;19049;52.524;11.468;2023-11-21T03:28:14;5.53;;;4.00;;
32639;SDS011;19049;52.524;11.468;2023-11-21T03:30:39;8.73;;;5.37;;
32639;SDS011;19049;52.524;11.468;2023-11-21T03:33:05;8.50;;;4.80;;
32639;SDS011;19049;52.524;11.468;2023-11-21T03:35:30;7.53;;;5.47;;
32639;SDS011;19049;52.524;11.468;2023-11-21T03:37:56;9.00;;;6.70;;
32639;SDS011;19049;52.524;11.468;2023-11-21T03:40:22;11.53;;;6.40;;
32639;SDS011;19049;52.524;11.468;2023-11-21T03:42:47;7.20;;;5.23;;
32639;SDS011;19049;52.524;11.468;2023-11-21T03:45:13;6.87;;;4.93;;
32639;SDS011;19049;52.524;11.468;2023-11-21T03:47:40;6.90;;;4.93;;
32639;SDS011;19049;52.524;11.468;2023-11-21T03:50:06;9.67;;;7.13;;
32639;SDS011;19049;52.524;11.468;2023-11-21T03:52:34;9.53;;;6.20;;
32639;SDS011;19049;52.524;11.468;2023-11-21T03:55:00;8.97;;;6.17;;
32639;SDS011;19049;52.524;11.468;2023-11-21T03:57:26;8.47;;;5.97;;
32639;SDS011;19049;52.524;11.468;2023-11-21T03:59:53;7.83;;;5.97;;
32639;SDS011;19049;52.524;11.468;2023-11-21T04:02:19;10.47;;;7.70;;
32639;SDS011;19049;52.524;11.468;2023-11-21T04:04:44;8.87;;;6.77;;
32639;SDS011;19049;52.524;11.468;2023-11-21T04:07:10;10.93;;;8.23;;
32639;SDS011;19049;52.524;11.468;2023-11-21T04:09:38;10.83;;;7.67;;
32639;SDS011;19049;52.524;11.468;2023-11-21T04:12:04;11.17;;;7.47;;
32639;SDS011;19049;52.524;11.468;2023-11-21T04:14:30;8.87;;;6.30;;
32639;SDS011;19049;52.524;11.468;2023-11-21T04:16:56;8.43;;;6.13;;
32639;SDS011;19049;52.524;11.468;2023-11-21T04:19:22;9.73;;;6.77;;
32639;SDS011;19049;52.524;11.468;2023-11-21T04:21:48;9.47;;;6.93;;
32639;SDS011;19049;52.524;11.468;2023-11-21T04:24:14;9.63;;;6.47;;
32639;SDS011;19049;52.524;11.468;2023-11-21T04:26:40;13.77;;;9.60;;
32639;SDS011;19049;52.524;11.468;2023-11-21T04:29:06;10.20;;;7.03;;
32639;SDS011;19049;52.524;11.468;2023-11-21T04:31:32;10.07;;;7.67;;
32639;SDS011;19049;52.524;11.468;2023-11-21T04:33:58;11.97;;;7.57;;
32639;SDS011;19049;52.524;11.468;2023-11-21T04:36:23;13.80;;;9.23;;
32639;SDS011;19049;52.524;11.468;2023-11-21T04:38:49;14.27;;;10.10;;
32639;SDS011;19049;52.524;11.468;2023-11-21T04:41:15;14.23;;;9.77;;
32639;SDS011;19049;52.524;11.468;2023-11-21T04:43:40;12.23;;;8.57;;
32639;SDS011;19049;52.524;11.468;2023-11-21T04:46:07;13.27;;;9.97;;
32639;SDS011;19049;52.524;11.468;2023-11-21T04:48:33;10.10;;;8.07;;
32639;SDS011;19049;52.524;11.468;2023-11-21T04:50:58;11.33;;;8.20;;
32639;SDS011;19049;52.524;11.468;2023-11-21T04:53:24;13.70;;;8.77;;
32639;SDS011;19049;52.524;11.468;2023-11-21T04:55:49;12.00;;;8.47;;
32639;SDS011;19049;52.524;11.468;2023-11-21T04:58:15;15.53;;;9.50;;
32639;SDS011;19049;52.524;11.468;2023-11-21T05:00:41;12.43;;;8.70;;
32639;SDS011;19049;52.524;11.468;2023-11-21T05:03:06;12.80;;;8.30;;
32639;SDS011;19049;52.524;11.468;2023-11-21T05:05:32;13.50;;;9.67;;
32639;SDS011;19049;52.524;11.468;2023-11-21T05:08:02;10.97;;;8.03;;
32639;SDS011;19049;52.524;11.468;2023-11-21T05:10:28;14.93;;;11.00;;
32639;SDS011;19049;52.524;11.468;2023-11-21T05:12:54;15.77;;;10.90;;
32639;SDS011;19049;52.524;11.468;2023-11-21T05:15:20;11.30;;;8.30;;
32639;SDS011;19049;52.524;11.468;2023-11-21T05:17:46;15.73;;;10.53;;
32639;SDS011;19049;52.524;11.468;2023-11-21T05:20:17;17.43;;;11.53;;
32639;SDS011;19049;52.524;11.468;2023-11-21T05:22:46;15.03;;;10.27;;
32639;SDS011;19049;52.524;11.468;2023-11-21T05:25:13;12.50;;;9.27;;
32639;SDS011;19049;52.524;11.468;2023-11-21T05:27:39;16.43;;;11.10;;
32639;SDS011;19049;52.524;11.468;2023-11-21T05:30:05;17.10;;;12.37;;
32639;SDS011;19049;52.524;11.468;2023-11-21T05:32:31;15.07;;;11.20;;
32639;SDS011;19049;52.524;11.468;2023-11-21T05:34:58;16.23;;;10.77;;
32639;SDS011;19049;52.524;11.468;2023-11-21T05:37:24;15.57;;;11.17;;
32639;SDS011;19049;52.524;11.468;2023-11-21T05:39:51;11.60;;;8.60;;
32639;SDS011;19049;52.524;11.468;2023-11-21T05:42:23;13.67;;;9.47;;
32639;SDS011;19049;52.524;11.468;2023-11-21T05:44:49;12.67;;;8.67;;
32639;SDS011;19049;52.524;11.468;2023-11-21T05:47:14;15.90;;;9.10;;
32639;SDS011;19049;52.524;11.468;2023-11-21T05:49:40;11.23;;;7.87;;
32639;SDS011;19049;52.524;11.468;2023-11-21T05:52:06;12.67;;;8.30;;
32639;SDS011;19049;52.524;11.468;2023-11-21T05:54:32;12.43;;;8.53;;
32639;SDS011;19049;52.524;11.468;2023-11-21T05:56:57;11.70;;;7.27;;
32639;SDS011;19049;52.524;11.468;2023-11-21T05:59:24;8.90;;;6.37;;
32639;SDS011;19049;52.524;11.468;2023-11-21T06:01:49;11.90;;;6.43;;
32639;SDS011;19049;52.524;11.468;2023-11-21T06:04:15;11.57;;;7.17;;
32639;SDS011;19049;52.524;11.468;2023-11-21T06:06:41;13.77;;;8.80;;
32639;SDS011;19049;52.524;11.468;2023-11-21T06:09:06;11.97;;;8.00;;
32639;SDS011;19049;52.524;11.468;2023-11-21T06:11:34;12.27;;;8.57;;
32639;SDS011;19049;52.524;11.468;2023-11-21T06:14:00;10.03;;;7.70;;
32639;SDS011;19049;52.524;11.468;2023-11-21T06:16:25;9.60;;;6.80;;
32639;SDS011;19049;52.524;11.468;2023-11-21T06:18:52;9.73;;;6.23;;
32639;SDS011;19049;52.524;11.468;2023-11-21T06:21:18;12.80;;;8.20;;
32639;SDS011;19049;52.524;11.468;2023-11-21T06:23:44;11.33;;;7.53;;
32639;SDS011;19049;52.524;11.468;2023-11-21T06:26:09;8.43;;;6.27;;
32639;SDS011;19049;52.524;11.468;2023-11-21T06:28:35;9.40;;;6.40;;
32639;SDS011;19049;52.524;11.468;2023-11-21T06:31:01;11.50;;;7.70;;
32639;SDS011;19049;52.524;11.468;2023-11-21T06:33:33;8.07;;;5.90;;
32639;SDS011;19049;52.524;11.468;2023-11-21T06:35:59;9.77;;;7.20;;
32639;SDS011;19049;52.524;11.468;2023-11-21T06:38:28;9.13;;;6.80;;
32639;SDS011;19049;52.524;11.468;2023-11-21T06:40:55;8.57;;;6.60;;
32639;SDS011;19049;52.524;11.468;2023-11-21T06:43:23;8.40;;;5.83;;
32639;SDS011;19049;52.524;11.468;2023-11-21T06:45:48;5.90;;;4.47;;
32639;SDS011;19049;52.524;11.468;2023-11-21T06:48:14;7.70;;;5.43;;
32639;SDS011;19049;52.524;11.468;2023-11-21T06:50:40;7.67;;;5.20;;
32639;SDS011;19049;52.524;11.468;2023-11-21T06:53:06;8.63;;;6.30;;
32639;SDS011;19049;52.524;11.468;2023-11-21T06:55:33;9.60;;;6.77;;
32639;SDS011;19049;52.524;11.468;2023-11-21T06:57:58;8.47;;;6.07;;
32639;SDS011;19049;52.524;11.468;2023-11-21T07:00:25;7.60;;;5.93;;
32639;SDS011;19049;52.524;11.468;2023-11-21T07:02:53;10.07;;;7.33;;
32639;SDS011;19049;52.524;11.468;2023-11-21T07:05:19;8.77;;;6.20;;
32639;SDS011;19049;52.524;11.468;2023-11-21T07:07:46;8.17;;;5.73;;
32639;SDS011;19049;52.524;11.468;2023-11-21T07:10:13;7.30;;;5.73;;
32639;SDS011;19049;52.524;11.468;2023-11-21T07:12:39;7.73;;;6.10;;
32639;SDS011;19049;52.524;11.468;2023-11-21T07:15:05;8.37;;;5.70;;
32639;SDS011;19049;52.524;11.468;2023-11-21T07:17:34;12.63;;;8.23;;
32639;SDS011;19049;52.524;11.468;2023-11-21T07:20:04;10.70;;;7.50;;
32639;SDS011;19049;52.524;11.468;2023-11-21T07:22:31;10.77;;;7.27;;
32639;SDS011;19049;52.524;11.468;2023-11-21T07:24:57;9.80;;;7.50;;
32639;SDS011;19049;52.524;11.468;2023-11-21T07:27:22;10.53;;;7.97;;
32639;SDS011;19049;52.524;11.468;2023-11-21T07:29:48;8.33;;;6.03;;
32639;SDS011;19049;52.524;11.468;2023-11-21T07:32:14;10.80;;;7.33;;
32639;SDS011;19049;52.524;11.468;2023-11-21T07:34:40;10.37;;;7.50;;
32639;SDS011;19049;52.524;11.468;2023-11-21T07:37:06;9.50;;;6.80;;
32639;SDS011;19049;52.524;11.468;2023-11-21T07:39:33;8.73;;;6.40;;
32639;SDS011;19049;52.524;11.468;2023-11-21T07:42:00;8.87;;;6.53;;
32639;SDS011;19049;52.524;11.468;2023-11-21T07:44:27;12.23;;;7.33;;
32639;SDS011;19049;52.524;11.468;2023-11-21T07:46:53;7.93;;;6.33;;
32639;SDS011;19049;52.524;11.468;2023-11-21T07:49:22;9.03;;;6.63;;
32639;SDS011;19049;52.524;11.468;2023-11-21T07:51:49;10.27;;;7.77;;
32639;SDS011;19049;52.524;11.468;2023-11-21T07:54:14;9.90;;;7.10;;
32639;SDS011;19049;52.524;11.468;2023-11-21T07:56:41;9.20;;;6.37;;
32639;SDS011;19049;52.524;11.468;2023-11-21T07:59:07;11.17;;;6.30;;
32639;SDS011;19049;52.524;11.468;2023-11-21T08:01:33;8.93;;;6.00;;
32639;SDS011;19049;52.524;11.468;2023-11-21T08:03:58;7.30;;;5.90;;
32639;SDS011;19049;52.524;11.468;2023-11-21T08:06:28;6.93;;;5.20;;
32639;SDS011;19049;52.524;11.468;2023-11-21T08:08:57;7.07;;;5.40;;
32639;SDS011;19049;52.524;11.468;2023-11-21T08:11:23;7.57;;;5.27;;
32639;SDS011;19049;52.524;11.468;2023-11-21T08:13:49;6.17;;;4.70;;
32639;SDS011;19049;52.524;11.468;2023-11-21T08:16:15;7.07;;;5.50;;
32639;SDS011;19049;52.524;11.468;2023-11-21T08:18:41;7.50;;;5.87;;
32639;SDS011;19049;52.524;11.468;2023-11-21T08:21:07;7.63;;;5.47;;
32639;SDS011;19049;52.524;11.468;2023-11-21T08:23:33;6.87;;;5.90;;
32639;SDS011;19049;52.524;11.468;2023-11-21T08:25:59;7.67;;;6.20;;
32639;SDS011;19049;52.524;11.468;2023-11-21T08:28:27;6.70;;;5.13;;
32639;SDS011;19049;52.524;11.468;2023-11-21T08:30:52;7.67;;;5.37;;
32639;SDS011;19049;52.524;11.468;2023-11-21T08:33:19;7.37;;;5.20;;
32639;SDS011;19049;52.524;11.468;2023-11-21T08:35:45;9.63;;;6.13;;
32639;SDS011;19049;52.524;11.468;2023-11-21T08:38:11;8.03;;;6.13;;
32639;SDS011;19049;52.524;11.468;2023-11-21T08:40:37;8.00;;;6.43;;
32639;SDS011;19049;52.524;11.468;2023-11-21T08:43:03;7.90;;;5.90;;
32639;SDS011;19049;52.524;11.468;2023-11-21T08:45:33;8.33;;;6.60;;
32639;SDS011;19049;52.524;11.468;2023-11-21T08:48:02;8.00;;;6.30;;
32639;SDS011;19049;52.524;11.468;2023-11-21T08:50:28;8.80;;;6.87;;
32639;SDS011;19049;52.524;11.468;2023-11-21T08:52:53;9.97;;;7.63;;
32639;SDS011;19049;52.524;11.468;2023-11-21T08:55:19;13.30;;;9.13;;
32639;SDS011;19049;52.524;11.468;2023-11-21T08:57:45;12.30;;;8.67;;
32639;SDS011;19049;52.524;11.468;2023-11-21T09:00:13;11.17;;;8.13;;
32639;SDS011;19049;52.524;11.468;2023-11-21T09:02:41;11.27;;;8.40;;
32639;SDS011;19049;52.524;11.468;2023-11-21T09:05:08;12.07;;;8.40;;
32639;SDS011;19049;52.524;11.468;2023-11-21T09:07:39;11.37;;;8.60;;
32639;SDS011;19049;52.524;11.468;2023-11-21T09:10:08;12.27;;;8.93;;
32639;SDS011;19049;52.524;11.468;2023-11-21T09:12:37;10.73;;;8.00;;
32639;SDS011;19049;52.524;11.468;2023-11-21T09:15:03;8.67;;;6.80;;
32639;SDS011;19049;52.524;11.468;2023-11-21T09:17:30;8.33;;;6.20;;
32639;SDS011;19049;52.524;11.468;2023-11-21T09:19:56;9.80;;;7.30;;
32639;SDS011;19049;52.524;11.468;2023-11-21T09:22:22;12.73;;;7.07;;
32639;SDS011;19049;52.524;11.468;2023-11-21T09:24:50;10.33;;;7.13;;
32639;SDS011;19049;52.524;11.468;2023-11-21T09:27:16;9.00;;;6.97;;
32639;SDS011;19049;52.524;11.468;2023-11-21T09:29:42;11.33;;;7.27;;
32639;SDS011;19049;52.524;11.468;2023-11-21T09:32:08;9.07;;;6.57;;
32639;SDS011;19049;52.524;11.468;2023-11-21T09:34:37;7.60;;;6.37;;
32639;SDS011;19049;52.524;11.468;2023-11-21T09:37:03;9.27;;;6.87;;
32639;SDS011;19049;52.524;11.468;2023-11-21T09:39:30;9.20;;;5.83;;
32639;SDS011;19049;52.524;11.468;2023-11-21T09:42:04;8.40;;;6.50;;
32639;SDS011;19049;52.524;11.468;2023-11-21T09:47:35;6.53;;;5.83;;
32639;SDS011;19049;52.524;11.468;2023-11-21T09:50:03;7.87;;;6.83;;
32639;SDS011;19049;52.524;11.468;2023-11-21T09:52:33;8.90;;;7.00;;
32639;SDS011;19049;52.524;11.468;2023-11-21T09:55:18;8.27;;;6.13;;
32639;SDS011;19049;52.524;11.468;2023-11-21T09:57:46;9.67;;;6.80;;
32639;SDS011;19049;52.524;11.468;2023-11-21T10:00:14;9.07;;;6.50;;
32639;SDS011;19049;52.524;11.468;2023-11-21T10:02:43;9.53;;;7.70;;
32639;SDS011;19049;52.524;11.468;2023-11-21T10:05:08;11.23;;;7.73;;
32639;SDS011;19049;52.524;11.468;2023-11-21T10:07:38;9.40;;;7.70;;
32639;SDS011;19049;52.524;11.468;2023-11-21T10:10:06;13.43;;;8.83;;
32639;SDS011;19049;52.524;11.468;2023-11-21T10:12:33;12.27;;;8.77;;
32639;SDS011;19049;52.524;11.468;2023-11-21T10:15:00;12.50;;;7.80;;
32639;SDS011;19049;52.524;11.468;2023-11-21T10:17:28;10.33;;;7.43;;
32639;SDS011;19049;52.524;11.468;2023-11-21T10:20:01;10.63;;;7.43;;
32639;SDS011;19049;52.524;11.468;2023-11-21T10:22:31;10.30;;;8.70;;
32639;SDS011;19049;52.524;11.468;2023-11-21T10:24:58;8.53;;;7.37;;
32639;SDS011;19049;52.524;11.468;2023-11-21T10:27:26;9.10;;;7.13;;
32639;SDS011;19049;52.524;11.468;2023-11-21T10:29:52;6.87;;;5.67;;
32639;SDS011;19049;52.524;11.468;2023-11-21T10:32:18;9.23;;;7.40;;
32639;SDS011;19049;52.524;11.468;2023-11-21T10:34:55;9.80;;;7.10;;
32639;SDS011;19049;52.524;11.468;2023-11-21T10:37:21;7.53;;;6.27;;
32639;SDS011;19049;52.524;11.468;2023-11-21T10:39:46;11.70;;;6.77;;
32639;SDS011;19049;52.524;11.468;2023-11-21T10:42:12;8.33;;;6.23;;
32639;SDS011;19049;52.524;11.468;2023-11-21T10:44:37;8.30;;;6.33;;
32639;SDS011;19049;52.524;11.468;2023-11-21T10:47:03;7.13;;;5.37;;
32639;SDS011;19049;52.524;11.468;2023-11-21T10:49:30;8.80;;;6.83;;
32639;SDS011;19049;52.524;11.468;2023-11-21T10:51:56;11.37;;;7.70;;
32639;SDS011;19049;52.524;11.468;2023-11-21T10:54:22;11.43;;;7.13;;
32639;SDS011;19049;52.524;11.468;2023-11-21T10:56:50;8.67;;;5.87;;
32639;SDS011;19049;52.524;11.468;2023-11-21T10:59:22;10.20;;;7.23;;
32639;SDS011;19049;52.524;11.468;2023-11-21T11:01:50;9.83;;;7.13;;
32639;SDS011;19049;52.524;11.468;2023-11-21T11:04:20;8.00;;;6.43;;
32639;SDS011;19049;52.524;11.468;2023-11-21T11:06:50;7.00;;;5.43;;
32639;SDS011;19049;52.524;11.468;2023-11-21T11:09:19;8.27;;;6.40;;
32639;SDS011;19049;52.524;11.468;2023-11-21T11:11:45;6.10;;;5.27;;
32639;SDS011;19049;52.524;11.468;2023-11-21T11:14:11;6.70;;;5.57;;
32639;SDS011;19049;52.524;11.468;2023-11-21T11:16:39;6.50;;;5.13;;
32639;SDS011;19049;52.524;11.468;2023-11-21T11:19:08;8.10;;;5.80;;
32639;SDS011;19049;52.524;11.468;2023-11-21T11:21:38;6.90;;;5.30;;
32639;SDS011;19049;52.524;11.468;2023-11-21T11:36:10;6.00;;;4.00;;
32639;SDS011;19049;52.524;11.468;2023-11-21T11:38:45;4.90;;;3.87;;
32639;SDS011;19049;52.524;11.468;2023-11-21T11:41:11;4.87;;;4.13;;
32639;SDS011;19049;52.524;11.468;2023-11-21T11:43:37;4.37;;;3.60;;
32639;SDS011;19049;52.524;11.468;2023-11-21T11:46:09;6.50;;;3.70;;
32639;SDS011;19049;52.524;11.468;2023-11-21T11:48:38;4.07;;;3.43;;
32639;SDS011;19049;52.524;11.468;2023-11-21T11:51:15;3.70;;;3.30;;
32639;SDS011;19049;52.524;11.468;2023-11-21T11:53:45;4.47;;;3.70;;
32639;SDS011;19049;52.524;11.468;2023-11-21T11:56:25;5.97;;;3.77;;
32639;SDS011;19049;52.524;11.468;2023-11-21T11:58:54;3.33;;;2.87;;
32639;SDS011;19049;52.524;11.468;2023-11-21T12:01:21;3.37;;;3.07;;
32639;SDS011;19049;52.524;11.468;2023-11-21T12:07:02;3.80;;;3.10;;
32639;SDS011;19049;52.524;11.468;2023-11-21T12:09:28;3.77;;;3.30;;
32639;SDS011;19049;52.524;11.468;2023-11-21T12:11:56;3.30;;;2.80;;
32639;SDS011;19049;52.524;11.468;2023-11-21T12:14:22;4.80;;;4.00;;
32639;SDS011;19049;52.524;11.468;2023-11-21T12:16:48;4.00;;;3.40;;
32639;SDS011;19049;52.524;11.468;2023-11-21T12:19:14;3.63;;;3.33;;
32639;SDS011;19049;52.524;11.468;2023-11-21T12:21:40;3.43;;;3.03;;
32639;SDS011;19049;52.524;11.468;2023-11-21T12:24:06;4.07;;;3.27;;
32639;SDS011;19049;52.524;11.468;2023-11-21T12:26:38;3.63;;;3.10;;
32639;SDS011;19049;52.524;11.468;2023-11-21T12:29:04;4.63;;;3.40;;
32639;SDS011;19049;52.524;11.468;2023-11-21T12:31:32;3.90;;;3.00;;
32639;SDS011;19049;52.524;11.468;2023-11-21T12:33:59;3.50;;;3.00;;
32639;SDS011;19049;52.524;11.468;2023-11-21T12:36:25;5.77;;;3.90;;
32639;SDS011;19049;52.524;11.468;2023-11-21T12:38:51;5.93;;;4.73;;
32639;SDS011;19049;52.524;11.468;2023-11-21T12:41:17;4.90;;;4.00;;
32639;SDS011;19049;52.524;11.468;2023-11-21T12:43:43;4.10;;;3.60;;
32639;SDS011;19049;52.524;11.468;2023-11-21T12:46:09;5.53;;;3.60;;
32639;SDS011;19049;52.524;11.468;2023-11-21T12:48:42;6.00;;;4.30;;
32639;SDS011;19049;52.524;11.468;2023-11-21T12:51:09;6.53;;;5.37;;
32639;SDS011;19049;52.524;11.468;2023-11-21T12:53:37;5.83;;;4.50;;
32639;SDS011;19049;52.524;11.468;2023-11-21T12:56:12;6.37;;;4.73;;
32639;SDS011;19049;52.524;11.468;2023-11-21T12:58:44;6.03;;;4.10;;
32639;SDS011;19049;52.524;11.468;2023-11-21T13:01:12;7.73;;;6.93;;
32639;SDS011;19049;52.524;11.468;2023-11-21T13:03:43;6.03;;;4.97;;
32639;SDS011;19049;52.524;11.468;2023-11-21T13:06:14;5.13;;;4.00;;
32639;SDS011;19049;52.524;11.468;2023-11-21T13:08:41;6.57;;;4.37;;
32639;SDS011;19049;52.524;11.468;2023-11-21T13:11:06;5.70;;;4.47;;
32639;SDS011;19049;52.524;11.468;2023-11-21T13:13:32;5.47;;;4.17;;
32639;SDS011;19049;52.524;11.468;2023-11-21T13:15:59;5.17;;;4.30;;
32639;SDS011;19049;52.524;11.468;2023-11-21T13:18:26;4.37;;;3.93;;
32639;SDS011;19049;52.524;11.468;2023-11-21T13:20:53;5.47;;;4.10;;
32639;SDS011;19049;52.524;11.468;2023-11-21T13:23:20;5.40;;;4.60;;
32639;SDS011;19049;52.524;11.468;2023-11-21T13:25:47;5.20;;;3.70;;
32639;SDS011;19049;52.524;11.468;2023-11-21T13:28:14;5.50;;;3.97;;
32639;SDS011;19049;52.524;11.468;2023-11-21T13:30:47;4.80;;;4.03;;
32639;SDS011;19049;52.524;11.468;2023-11-21T13:33:13;5.23;;;3.57;;
32639;SDS011;19049;52.524;11.468;2023-11-21T13:35:43;5.57;;;4.43;;
32639;SDS011;19049;52.524;11.468;2023-11-21T13:38:13;5.33;;;4.40;;
32639;SDS011;19049;52.524;11.468;2023-11-21T13:40:47;6.03;;;4.03;;
32639;SDS011;19049;52.524;11.468;2023-11-21T13:43:17;5.17;;;3.93;;
32639;SDS011;19049;52.524;11.468;2023-11-21T13:45:45;4.93;;;3.43;;
32639;SDS011;19049;52.524;11.468;2023-11-21T13:48:12;7.17;;;4.10;;
32639;SDS011;19049;52.524;11.468;2023-11-21T13:50:48;5.50;;;4.20;;
32639;SDS011;19049;52.524;11.468;2023-11-21T13:53:20;4.73;;;3.77;;
32639;SDS011;19049;52.524;11.468;2023-11-21T13:55:49;7.83;;;3.80;;
32639;SDS011;19049;52.524;11.468;2023-11-21T13:58:22;5.27;;;4.20;;
32639;SDS011;19049;52.524;11.468;2023-11-21T14:01:07;5.50;;;3.83;;
32639;SDS011;19049;52.524;11.468;2023-11-21T14:03:49;6.00;;;4.33;;
32639;SDS011;19049;52.524;11.468;2023-11-21T14:06:21;6.97;;;5.00;;
32639;SDS011;19049;52.524;11.468;2023-11-21T14:08:53;6.63;;;4.60;;
32639;SDS011;19049;52.524;11.468;2023-11-21T14:11:21;6.67;;;4.37;;
32639;SDS011;19049;52.524;11.468;2023-11-21T14:13:47;5.93;;;4.07;;
32639;SDS011;19049;52.524;11.468;2023-11-21T14:16:14;5.07;;;3.93;;
32639;SDS011;19049;52.524;11.468;2023-11-21T14:18:41;5.10;;;3.53;;
32639;SDS011;19049;52.524;11.468;2023-11-21T14:21:18;4.87;;;3.80;;
32639;SDS011;19049;52.524;11.468;2023-11-21T14:23:44;5.57;;;4.10;;
32639;SDS011;19049;52.524;11.468;2023-11-21T14:26:10;5.83;;;3.97;;
32639;SDS011;19049;52.524;11.468;2023-11-21T14:28:40;3.53;;;3.10;;
32639;SDS011;19049;52.524;11.468;2023-11-21T14:31:06;5.33;;;3.60;;
32639;SDS011;19049;52.524;11.468;2023-11-21T14:33:38;5.07;;;3.90;;
32639;SDS011;19049;52.524;11.468;2023-11-21T14:36:04;6.33;;;3.33;;
32639;SDS011;19049;52.524;11.468;2023-11-21T14:38:33;6.20;;;4.57;;
32639;SDS011;19049;52.524;11.468;2023-11-21T14:40:58;5.77;;;4.13;;
32639;SDS011;19049;52.524;11.468;2023-11-21T14:43:24;5.47;;;3.97;;
32639;SDS011;19049;52.524;11.468;2023-11-21T14:45:51;6.47;;;4.87;;